createdAt,value
2019-02-10T00:01:56.229Z,40.17
2019-02-10T00:04:27.566Z,39.77
2019-02-10T00:06:59.101Z,37.33
2019-02-10T00:09:29.591Z,42.30
2019-02-10T00:12:00.293Z,50.33
2019-02-10T00:14:31.355Z,43.83
2019-02-10T00:17:22.325Z,48.10
2019-02-10T00:19:53.125Z,45.00
2019-02-10T00:22:23.623Z,42.47
2019-02-10T00:24:55.000Z,41.73
2019-02-10T00:27:26.139Z,41.43
2019-02-10T00:29:57.970Z,45.77
2019-02-10T00:32:28.894Z,47.47
2019-02-10T00:35:00.206Z,37.03
2019-02-10T00:37:30.670Z,43.47
2019-02-10T00:40:21.583Z,43.67
2019-02-10T00:49:06.176Z,31.37
2019-02-10T00:51:36.821Z,35.57
2019-02-10T00:54:07.875Z,30.67
2019-02-10T00:56:39.425Z,31.50
2019-02-10T00:59:10.039Z,28.20
2019-02-10T01:01:40.564Z,35.53
2019-02-10T01:07:32.517Z,40.07
2019-02-10T01:10:03.997Z,34.67
2019-02-10T01:12:36.034Z,36.93
2019-02-10T01:15:06.954Z,27.90
2019-02-10T01:17:58.085Z,27.73
2019-02-10T01:20:29.544Z,26.33
2019-02-10T01:23:00.273Z,31.03
2019-02-10T01:25:31.644Z,31.53
2019-02-10T01:28:02.347Z,43.43
2019-02-10T01:30:33.102Z,24.30
2019-02-10T01:33:04.760Z,25.60
2019-02-10T01:38:34.347Z,21.00
2019-02-10T01:41:05.631Z,16.30
2019-02-10T01:43:57.024Z,29.60
2019-02-10T01:46:48.013Z,19.20
2019-02-10T01:49:18.879Z,13.53
2019-02-10T01:51:49.504Z,15.00
2019-02-10T01:54:20.884Z,21.87
2019-02-10T02:00:10.663Z,19.13
2019-02-10T02:02:41.411Z,24.70
2019-02-10T02:08:27.632Z,26.80
2019-02-10T02:10:58.619Z,24.57
2019-02-10T02:13:29.584Z,39.10
2019-02-10T02:16:00.755Z,39.30
2019-02-10T02:18:31.450Z,36.83
2019-02-10T02:21:01.970Z,34.87
2019-02-10T02:26:49.593Z,28.10
2019-02-10T02:29:21.323Z,40.03
2019-02-10T02:31:51.815Z,33.13
2019-02-10T02:34:22.553Z,47.27
2019-02-10T02:36:54.234Z,25.93
2019-02-10T02:39:25.859Z,28.43
2019-02-10T02:41:56.390Z,40.70
2019-02-10T02:44:26.821Z,37.60
2019-02-10T02:46:58.011Z,31.47
2019-02-10T02:52:28.396Z,30.63
2019-02-10T02:54:58.933Z,39.53
2019-02-10T02:57:30.613Z,37.73
2019-02-10T03:00:01.659Z,42.73
2019-02-10T03:02:32.362Z,32.27
2019-02-10T03:05:03.109Z,33.20
2019-02-10T03:07:40.910Z,21.97
2019-02-10T03:10:11.852Z,23.13
2019-02-10T03:12:42.257Z,45.77
2019-02-10T03:15:12.868Z,34.63
2019-02-10T03:18:03.721Z,28.90
2019-02-10T03:20:59.958Z,25.53
2019-02-10T03:23:30.547Z,23.07
2019-02-10T03:26:01.282Z,44.87
2019-02-10T03:31:30.759Z,29.23
2019-02-10T03:34:21.640Z,21.00
2019-02-10T03:36:52.146Z,26.43
2019-02-10T03:39:43.072Z,27.07
2019-02-10T03:42:13.835Z,26.77
2019-02-10T03:44:44.333Z,39.93
2019-02-10T03:47:15.471Z,50.57
2019-02-10T03:49:51.976Z,52.83
2019-02-10T03:52:22.768Z,61.23
2019-02-10T03:54:53.576Z,39.53
2019-02-10T03:57:24.889Z,33.23
2019-02-10T03:59:56.530Z,38.23
2019-02-10T04:05:23.844Z,36.30
2019-02-10T04:07:55.149Z,31.80
2019-02-10T04:13:31.578Z,35.63
2019-02-10T04:16:02.167Z,33.40
2019-02-10T04:18:33.217Z,26.07
2019-02-10T04:21:24.163Z,27.80
2019-02-10T04:23:55.456Z,29.47
2019-02-10T04:26:26.914Z,29.17
2019-02-10T04:28:58.200Z,26.23
2019-02-10T04:31:29.058Z,19.10
2019-02-10T04:34:00.022Z,29.17
2019-02-10T04:36:37.890Z,30.93
2019-02-10T04:39:28.838Z,20.97
2019-02-10T04:41:59.534Z,26.37
2019-02-10T04:44:30.403Z,23.97
2019-02-10T04:47:01.341Z,19.40
2019-02-10T04:49:32.572Z,38.63
2019-02-10T04:52:03.404Z,28.27
2019-02-10T04:54:34.578Z,16.90
2019-02-10T05:00:03.464Z,33.07
2019-02-10T05:02:34.130Z,31.60
2019-02-10T05:05:12.520Z,33.17
2019-02-10T05:07:43.226Z,35.27
2019-02-10T05:10:13.880Z,25.13
2019-02-10T05:12:45.314Z,26.93
2019-02-10T05:15:16.150Z,29.93
2019-02-10T05:17:46.865Z,47.17
2019-02-10T05:20:17.414Z,41.27
2019-02-10T05:23:08.202Z,33.67
2019-02-10T05:25:39.298Z,31.67
2019-02-10T05:28:10.078Z,48.47
2019-02-10T05:30:40.627Z,39.00
2019-02-10T05:33:31.447Z,51.30
2019-02-10T05:36:04.832Z,36.13
2019-02-10T05:38:35.347Z,52.67
2019-02-10T05:41:06.204Z,49.70
2019-02-10T05:43:37.537Z,45.77
2019-02-10T05:46:08.012Z,61.53
2019-02-10T05:48:58.993Z,60.00
2019-02-10T05:51:50.576Z,54.30
2019-02-10T05:54:21.490Z,139.27
2019-02-10T05:56:52.355Z,47.87
2019-02-10T05:59:23.470Z,41.00
2019-02-10T06:02:07.443Z,33.17
2019-02-10T06:04:40.902Z,38.67
2019-02-10T06:07:16.384Z,43.60
2019-02-10T06:09:46.618Z,60.23
2019-02-10T06:12:17.899Z,54.33
2019-02-10T06:14:48.450Z,62.60
2019-02-10T06:17:19.002Z,60.17
2019-02-10T06:22:46.402Z,78.23
2019-02-10T06:25:17.607Z,127.37
2019-02-10T06:27:48.488Z,120.73
2019-02-10T06:30:19.458Z,111.23
2019-02-10T06:32:50.033Z,107.33
2019-02-10T06:35:20.893Z,88.40
2019-02-10T06:38:12.094Z,71.80
2019-02-10T06:40:43.296Z,63.57
2019-02-10T06:43:13.745Z,55.60
2019-02-10T06:45:44.806Z,55.07
2019-02-10T06:48:22.760Z,79.30
2019-02-10T06:51:13.922Z,63.67
2019-02-10T06:53:44.650Z,58.53
2019-02-10T06:56:15.813Z,62.37
2019-02-10T06:58:48.309Z,40.83
2019-02-10T07:01:44.567Z,41.53
2019-02-10T07:04:24.412Z,36.73
2019-02-10T07:06:55.410Z,28.03
2019-02-10T07:09:29.774Z,29.90
2019-02-10T07:12:09.307Z,136.73
2019-02-10T07:14:41.011Z,45.10
2019-02-10T07:17:21.225Z,38.20
2019-02-10T07:20:33.422Z,40.40
2019-02-10T07:23:41.432Z,96.00
2019-02-10T07:26:39.482Z,31.97
2019-02-10T07:29:52.164Z,74.90
2019-02-10T07:32:39.669Z,76.57
2019-02-10T07:35:24.506Z,46.47
2019-02-10T07:38:09.139Z,62.60
2019-02-10T07:41:14.723Z,60.93
2019-02-10T07:44:45.971Z,63.07
2019-02-10T07:47:45.889Z,46.93
2019-02-10T07:51:17.601Z,82.83
2019-02-10T07:54:12.721Z,69.37
2019-02-10T07:57:17.947Z,67.50
2019-02-10T08:00:13.177Z,57.80
2019-02-10T08:03:12.718Z,33.33
2019-02-10T08:06:23.523Z,30.67
2019-02-10T08:09:39.906Z,31.83
2019-02-10T08:12:48.252Z,39.53
2019-02-10T08:15:55.510Z,31.67
2019-02-10T08:19:12.743Z,34.13
2019-02-10T08:22:13.599Z,31.17
2019-02-10T08:25:30.480Z,38.00
2019-02-10T08:28:34.583Z,41.23
2019-02-10T08:31:17.345Z,41.77
2019-02-10T08:34:27.232Z,45.83
2019-02-10T08:37:23.264Z,37.43
2019-02-10T08:40:47.907Z,60.40
2019-02-10T08:44:07.790Z,44.73
2019-02-10T08:47:13.842Z,35.80
2019-02-10T08:50:10.145Z,45.83
2019-02-10T08:52:51.846Z,37.23
2019-02-10T08:55:19.741Z,32.53
2019-02-10T08:57:50.109Z,33.47
2019-02-10T09:00:20.491Z,27.77
2019-02-10T09:02:50.745Z,25.13
2019-02-10T09:05:21.559Z,30.33
2019-02-10T09:07:51.909Z,38.43
2019-02-10T09:10:22.370Z,36.70
2019-02-10T09:12:52.843Z,24.10
2019-02-10T09:15:23.803Z,54.80
2019-02-10T09:17:54.888Z,35.43
2019-02-10T09:20:25.929Z,47.57
2019-02-10T09:22:56.567Z,35.47
2019-02-10T09:25:27.853Z,31.83
2019-02-10T09:27:58.955Z,55.70
2019-02-10T09:30:30.145Z,66.27
2019-02-10T09:33:09.752Z,38.83
2019-02-10T09:35:40.858Z,29.43
2019-02-10T09:38:11.318Z,23.43
2019-02-10T09:40:42.302Z,23.73
2019-02-10T09:43:13.663Z,22.70
2019-02-10T09:45:44.744Z,24.60
2019-02-10T09:48:15.489Z,20.57
2019-02-10T09:50:46.546Z,24.40
2019-02-10T09:53:17.781Z,24.00
2019-02-10T09:55:48.914Z,24.23
2019-02-10T09:58:19.537Z,20.03
2019-02-10T10:03:58.027Z,13.83
2019-02-10T10:06:49.091Z,16.33
2019-02-10T10:09:19.923Z,37.67
2019-02-10T10:11:51.499Z,15.37
2019-02-10T10:14:21.999Z,11.20
2019-02-10T10:16:52.555Z,12.13
2019-02-10T10:19:43.470Z,17.73
2019-02-10T10:22:15.119Z,24.83
2019-02-10T10:24:50.459Z,14.80
2019-02-10T10:27:18.010Z,13.97
2019-02-10T10:29:48.352Z,22.17
2019-02-10T10:32:19.583Z,19.83
2019-02-10T10:34:49.994Z,16.20
2019-02-10T10:37:20.244Z,12.73
2019-02-10T10:39:58.183Z,19.87
2019-02-10T10:42:29.057Z,22.40
2019-02-10T10:44:59.580Z,16.47
2019-02-10T10:47:30.005Z,19.27
2019-02-10T10:50:06.583Z,22.90
2019-02-10T10:52:38.749Z,22.60
2019-02-10T10:55:10.272Z,18.47
2019-02-10T10:57:44.004Z,12.83
2019-02-10T11:00:15.031Z,20.37
2019-02-10T11:02:45.380Z,14.77
2019-02-10T11:05:15.725Z,20.10
2019-02-10T11:07:46.492Z,14.93
2019-02-10T11:10:17.343Z,11.27
2019-02-10T11:12:47.594Z,10.03
2019-02-10T11:15:17.982Z,15.00
2019-02-10T11:17:48.603Z,24.03
2019-02-10T11:20:19.367Z,26.27
2019-02-10T11:22:50.431Z,12.67
2019-02-10T11:25:21.893Z,13.03
2019-02-10T11:27:53.123Z,12.30
2019-02-10T11:30:23.649Z,13.87
2019-02-10T11:32:54.004Z,12.20
2019-02-10T11:35:24.266Z,22.23
2019-02-10T11:37:54.962Z,25.87
2019-02-10T11:40:45.626Z,18.33
2019-02-10T11:43:16.889Z,15.60
2019-02-10T11:45:47.571Z,11.87
2019-02-10T11:48:18.233Z,11.90
2019-02-10T11:50:48.637Z,12.37
2019-02-10T11:53:19.014Z,13.73
2019-02-10T11:55:49.495Z,14.93
2019-02-10T11:58:20.016Z,18.30
2019-02-10T12:00:51.297Z,16.13
2019-02-10T12:03:22.154Z,10.97
2019-02-10T12:05:52.745Z,11.30
2019-02-10T12:08:23.472Z,10.10
2019-02-10T12:10:53.920Z,10.60
2019-02-10T12:13:26.070Z,17.07
2019-02-10T12:15:56.577Z,10.97
2019-02-10T12:18:26.866Z,10.90
2019-02-10T12:20:57.202Z,21.20
2019-02-10T12:23:27.841Z,19.33
2019-02-10T12:25:59.058Z,19.00
2019-02-10T12:28:29.404Z,10.93
2019-02-10T12:30:59.971Z,21.07
2019-02-10T12:33:30.733Z,25.43
2019-02-10T12:36:21.795Z,10.83
2019-02-10T12:38:53.060Z,15.77
2019-02-10T12:41:23.314Z,10.07
2019-02-10T12:43:54.444Z,17.50
2019-02-10T12:46:25.440Z,22.73
2019-02-10T12:48:56.543Z,11.60
2019-02-10T12:51:26.862Z,18.70
2019-02-10T12:53:57.322Z,11.90
2019-02-10T12:56:27.555Z,12.50
2019-02-10T12:58:58.483Z,16.00
2019-02-10T13:01:29.464Z,12.33
2019-02-10T13:03:59.752Z,12.30
2019-02-10T13:06:30.005Z,14.77
2019-02-10T13:09:00.348Z,21.67
2019-02-10T13:11:30.713Z,11.10
2019-02-10T13:14:01.065Z,14.63
2019-02-10T13:16:31.308Z,16.23
2019-02-10T13:19:01.609Z,21.00
2019-02-10T13:21:32.063Z,40.40
2019-02-10T13:24:02.445Z,20.10
2019-02-10T13:26:32.723Z,22.00
2019-02-10T13:29:03.087Z,23.53
2019-02-10T13:31:33.427Z,15.87
2019-02-10T13:34:03.747Z,18.80
2019-02-10T13:36:34.200Z,25.37
2019-02-10T13:39:05.996Z,21.10
2019-02-10T13:41:37.725Z,18.37
2019-02-10T13:44:08.600Z,19.03
2019-02-10T13:46:38.954Z,22.23
2019-02-10T13:49:09.569Z,17.37
2019-02-10T13:51:39.832Z,25.63
2019-02-10T13:54:10.166Z,35.27
2019-02-10T13:56:40.511Z,23.83
2019-02-10T13:59:10.807Z,28.40
2019-02-10T14:01:41.041Z,37.33
2019-02-10T14:04:11.320Z,37.43
2019-02-10T14:06:41.681Z,28.83
2019-02-10T14:09:11.976Z,30.87
2019-02-10T14:11:42.231Z,74.47
2019-02-10T14:14:12.524Z,113.43
2019-02-10T14:16:42.883Z,44.30
2019-02-10T14:19:13.182Z,42.90
2019-02-10T14:21:43.452Z,20.60
2019-02-10T14:24:13.919Z,36.80
2019-02-10T14:26:44.266Z,39.33
2019-02-10T14:29:14.559Z,59.23
2019-02-10T14:31:44.803Z,56.13
2019-02-10T14:34:15.084Z,31.50
2019-02-10T14:36:45.422Z,44.53
2019-02-10T14:39:16.175Z,78.73
2019-02-10T14:41:46.726Z,70.83
2019-02-10T14:44:17.031Z,78.10
2019-02-10T14:46:47.483Z,81.57
2019-02-10T14:49:17.945Z,108.53
2019-02-10T14:51:49.253Z,117.83
2019-02-10T14:54:20.470Z,115.70
2019-02-10T14:56:51.106Z,100.63
2019-02-10T14:59:21.617Z,103.67
2019-02-10T15:01:51.966Z,124.67
2019-02-10T15:04:22.272Z,157.37
2019-02-10T15:06:52.508Z,135.27
2019-02-10T15:09:22.798Z,91.00
2019-02-10T15:11:53.128Z,100.70
2019-02-10T15:14:23.415Z,93.63
2019-02-10T15:16:53.678Z,106.30
2019-02-10T15:19:23.995Z,99.20
2019-02-10T15:21:54.549Z,126.30
2019-02-10T15:24:24.873Z,85.03
2019-02-10T15:26:55.158Z,94.37
2019-02-10T15:29:25.480Z,100.03
2019-02-10T15:31:55.915Z,104.30
2019-02-10T15:34:26.234Z,111.50
2019-02-10T15:36:56.562Z,122.57
2019-02-10T15:39:26.942Z,124.27
2019-02-10T15:41:57.215Z,161.80
2019-02-10T15:44:27.519Z,144.80
2019-02-10T15:46:57.868Z,123.20
2019-02-10T15:49:28.184Z,185.43
2019-02-10T15:51:58.439Z,154.67
2019-02-10T15:54:28.822Z,112.10
2019-02-10T15:56:59.446Z,119.93
2019-02-10T15:59:31.248Z,98.47
2019-02-10T16:02:01.857Z,110.03
2019-02-10T16:04:32.837Z,102.07
2019-02-10T16:07:23.915Z,73.87
2019-02-10T16:09:55.190Z,158.90
2019-02-10T16:12:26.240Z,137.53
2019-02-10T16:14:56.902Z,149.50
2019-02-10T16:17:27.553Z,118.43
2019-02-10T16:19:57.851Z,98.30
2019-02-10T16:25:28.069Z,136.93
2019-02-10T16:27:58.628Z,142.73
2019-02-10T16:30:29.071Z,129.47
2019-02-10T16:33:03.096Z,78.80
2019-02-10T16:38:53.142Z,78.27
2019-02-10T16:41:23.817Z,117.00
2019-02-10T16:46:52.456Z,93.43
2019-02-10T16:49:30.578Z,133.23
2019-02-10T16:52:01.162Z,168.70
2019-02-10T16:54:31.720Z,150.30
2019-02-10T16:57:02.881Z,213.53
2019-02-10T16:59:33.602Z,124.17
2019-02-10T17:02:04.175Z,117.33
2019-02-10T17:07:31.441Z,132.03
2019-02-10T17:10:02.049Z,94.90
2019-02-10T17:12:33.257Z,86.47
2019-02-10T17:15:24.402Z,77.83
2019-02-10T17:17:55.295Z,113.53
2019-02-10T17:20:26.238Z,125.00
2019-02-10T17:22:57.522Z,118.37
2019-02-10T17:25:28.584Z,99.90
2019-02-10T17:27:59.576Z,116.50
2019-02-10T17:30:30.207Z,81.43
2019-02-10T17:35:59.983Z,107.57
2019-02-10T17:38:31.181Z,90.53
2019-02-10T17:41:22.584Z,91.27
2019-02-10T17:43:48.835Z,152.40
2019-02-10T17:46:19.444Z,200.07
2019-02-10T17:48:50.090Z,129.00
2019-02-10T17:51:21.749Z,110.00
2019-02-10T17:53:52.933Z,103.57
2019-02-10T17:56:23.388Z,100.90
2019-02-10T17:58:53.938Z,91.17
2019-02-10T18:01:25.232Z,89.47
2019-02-10T18:04:16.113Z,95.70
2019-02-10T18:06:46.808Z,113.57
2019-02-10T18:09:17.548Z,115.87
2019-02-10T18:11:48.733Z,126.70
2019-02-10T18:14:37.421Z,111.40
2019-02-10T18:17:30.068Z,92.10
2019-02-10T18:20:18.207Z,89.93
2019-02-10T18:22:58.670Z,112.80
2019-02-10T18:25:35.959Z,67.47
2019-02-10T18:31:23.400Z,79.13
2019-02-10T18:34:16.047Z,101.20
2019-02-10T18:37:23.847Z,105.43
2019-02-10T18:40:26.124Z,220.67
2019-02-10T18:43:17.334Z,166.33
2019-02-10T18:46:13.870Z,107.10
2019-02-10T18:49:09.383Z,87.17
2019-02-10T18:51:56.098Z,86.27
2019-02-10T18:54:46.283Z,72.97
2019-02-10T18:57:42.106Z,86.80
2019-02-10T19:00:31.887Z,82.17
2019-02-10T19:03:21.969Z,106.70
2019-02-10T19:06:05.299Z,95.97
2019-02-10T19:08:54.773Z,127.27
2019-02-10T19:11:47.478Z,87.97
2019-02-10T19:14:33.514Z,85.87
2019-02-10T19:17:21.960Z,100.70
2019-02-10T19:20:15.121Z,96.30
2019-02-10T19:23:11.350Z,96.67
2019-02-10T19:25:58.981Z,94.17
2019-02-10T19:29:03.815Z,105.73
2019-02-10T19:31:53.795Z,91.97
2019-02-10T19:34:37.230Z,92.37
2019-02-10T19:37:25.473Z,104.17
2019-02-10T19:40:18.121Z,148.87
2019-02-10T19:43:08.343Z,127.23
2019-02-10T19:45:55.121Z,125.30
2019-02-10T19:48:47.359Z,118.20
2019-02-10T19:51:35.714Z,106.30
2019-02-10T19:54:25.895Z,102.47
2019-02-10T19:57:19.468Z,118.33
2019-02-10T20:00:07.500Z,123.30
2019-02-10T20:06:02.111Z,132.23
2019-02-10T20:08:49.844Z,78.77
2019-02-10T20:11:38.191Z,105.10
2019-02-10T20:14:23.673Z,107.93
2019-02-10T20:17:11.198Z,92.20
2019-02-10T20:20:13.264Z,77.77
2019-02-10T20:22:54.040Z,49.17
2019-02-10T20:25:42.176Z,56.20
2019-02-10T20:28:40.048Z,47.33
2019-02-10T20:31:21.118Z,48.27
2019-02-10T20:34:01.054Z,60.53
2019-02-10T20:36:42.657Z,70.07
2019-02-10T20:39:39.090Z,56.40
2019-02-10T20:42:28.668Z,63.80
2019-02-10T20:45:37.495Z,60.97
2019-02-10T20:48:59.222Z,53.30
2019-02-10T20:52:01.084Z,45.37
2019-02-10T20:54:39.909Z,54.20
2019-02-10T20:57:16.893Z,59.83
2019-02-10T21:00:07.082Z,71.23
2019-02-10T21:03:02.801Z,89.80
2019-02-10T21:06:07.526Z,83.50
2019-02-10T21:08:49.221Z,83.73
2019-02-10T21:11:33.911Z,81.57
2019-02-10T21:14:17.102Z,59.13
2019-02-10T21:17:09.235Z,58.53
2019-02-10T21:20:14.378Z,43.97
2019-02-10T21:23:16.441Z,49.93
2019-02-10T21:26:05.813Z,66.80
2019-02-10T21:28:58.972Z,72.63
2019-02-10T21:31:47.222Z,83.50
2019-02-10T21:34:35.769Z,63.13
2019-02-10T21:37:18.892Z,73.27
2019-02-10T21:40:18.002Z,67.23
2019-02-10T21:43:00.807Z,61.10
2019-02-10T21:45:38.402Z,67.77
2019-02-10T21:48:32.071Z,66.10
2019-02-10T21:51:03.261Z,56.87
2019-02-10T21:53:33.763Z,49.50
2019-02-10T21:56:04.495Z,67.40
2019-02-10T22:01:34.854Z,54.10
2019-02-10T22:04:06.318Z,49.80
2019-02-10T22:06:36.920Z,49.80
2019-02-10T22:09:08.557Z,51.67
2019-02-10T22:14:34.850Z,55.80
2019-02-10T22:20:02.877Z,44.97
2019-02-10T22:22:53.742Z,44.00
2019-02-10T22:25:24.868Z,38.00
2019-02-10T22:27:55.591Z,51.03
2019-02-10T22:30:34.445Z,38.63
2019-02-10T22:33:12.772Z,41.93
2019-02-10T22:35:43.271Z,49.67
2019-02-10T22:38:13.799Z,44.33
2019-02-10T22:40:45.385Z,35.13
2019-02-10T22:43:16.398Z,38.70
2019-02-10T22:45:47.006Z,33.80
2019-02-10T22:48:17.559Z,29.20
2019-02-10T22:50:49.129Z,24.00
2019-02-10T22:53:20.151Z,41.37
2019-02-10T22:55:50.573Z,41.80
2019-02-10T22:58:21.506Z,34.90
2019-02-10T23:00:58.497Z,44.00
2019-02-10T23:03:29.124Z,34.53
2019-02-10T23:06:00.402Z,37.47
2019-02-10T23:08:31.309Z,40.40
2019-02-10T23:14:01.833Z,43.30
2019-02-10T23:16:52.797Z,37.13
2019-02-10T23:19:24.346Z,40.13
2019-02-10T23:21:54.724Z,53.27
2019-02-10T23:24:25.145Z,42.20
2019-02-10T23:26:56.547Z,33.47
2019-02-10T23:32:23.433Z,50.17
2019-02-10T23:34:54.081Z,40.07
2019-02-10T23:37:25.032Z,36.00
2019-02-10T23:40:15.946Z,55.30
2019-02-10T23:42:47.408Z,55.53
2019-02-10T23:45:18.874Z,44.23
2019-02-10T23:48:09.867Z,37.13
2019-02-10T23:50:40.693Z,28.70
2019-02-10T23:53:11.668Z,45.43
2019-02-10T23:55:43.314Z,31.03
2019-02-10T23:58:14.357Z,26.23
